Search for airport 
image banner adimage banner adimage banner ad
image banner ad

KRDG - Reading Rgnl/Carl A Spaatz Field

Located in Reading, United States

ICAO - RDG, IATA - RDG

Data provided by Airmate  

General information

Coordinates: N40°22'43" W75°57'55"
Elevation is 344 feet MSL.
Magnetic variation is -12° East
View others Airports in Pennsylvania

Operational data

Special qualification required
Current time UTC:
Current local time:
Weather
METAR: KRDG 071154Z 00000KT 10SM CLR 12/01 A2991 RMK AO2 SLP134 T01170011 10117 20061 55001
TAF: KRDG 071120Z 0712/0812 VRB03KT P6SM SCT090 BKN200 FM071500 12005KT P6SM SCT040 OVC060 FM072200 26004KT P6SM -SHRA SCT015 OVC025 FM080400 VRB02KT 5SM -SHRA BR OVC020
View NOTAMs / SUP AIP / TFR affecting this airport [VIEW]
Communications frequencies: [VIEW]

Runways:

RWY identifierQFULength (ft)Width (ft)SurfaceLDA (ft)
13121°6350150ASPH6350
31301°6350150ASPH6350
18172°5151150ASPH5151
36352°5151150ASPH5151

Airport contact information

Address: Reading United States

Other aviation service providers

Flight schools

Reading Aero Club

Reading Aero Club

Reading Air Service

Reading Air Service

Satellite view of KRDG